ADDS METAR Data INFO
IDs: Format: Raw Decoded Include TAF

Data at: 1245 UTC 19 Oct 2017

PAPO 191242Z AUTO 32013KT 1 3/4SM -SN FEW007 SCT018 BKN027 M02/M05 A2942 RMK AO2 PK WND 34033/1207 SNB07 FZRANO PNO $
PAPO 191231Z AUTO 34014KT 5SM -SN FEW100 M03/M06 A2942 RMK AO2 PK WND 34033/1207 SNB07 FZRANO PNO $
PAPO 191218Z AUTO 34023KT 2 1/2SM -SN SCT026 BKN100 M03/M06 A2942 RMK AO2 PK WND 34033/1207 SNB07 FZRANO PNO $
PAPO 191156Z AUTO 33020KT 10SM FEW015 BKN026 BKN035 M02/M06 A2943 RMK AO2 PK WND 35026/1108 SNB11E45 SLP967 6//// 7//// T10171056 11011 21022 56019 FZRANO PNO $
PAPO 191138Z AUTO 33021G24KT 9SM -SN SCT017 BKN023 BKN031 M02/M05 A2944 RMK AO2 PK WND 35026/1108 SNB11 FZRANO PNO $
PAPO 191129Z AUTO 32018G23KT 7SM -SN FEW015 SCT025 BKN031 M02/M05 A2944 RMK AO2 PK WND 35026/1108 SNB11 FZRANO PNO $
PAPO 191119Z AUTO 32016KT 7SM -SN FEW008 SCT015 BKN027 M02/M06 A2945 RMK AO2 PK WND 35026/1108 SNB11 FZRANO PNO $
PAPO 191056Z AUTO 33017KT 9SM FEW031 M02/M04 A2945 RMK AO2 PK WND 34030/1035 UPB15E16SNE15B16E17B38E53 SLP973 T10171044 FZRANO PNO $
PAPO 190956Z AUTO 33025G32KT 8SM -SN FEW014 BKN030 M02/M04 A2947 RMK AO2 PK WND 33032/0953 UPB06E52SNE06B25E36B56 SLP978 T10171044 FZRANO PNO $
PAPO 190856Z AUTO 33025G30KT 3SM -SN BR FEW006 M02/M04 A2949 RMK AO2 PK WND 33032/0852 SNB06 SLP986 6//// T10221044 400001050 58020 FZRANO PNO $
PAPO 190850Z AUTO 33024G28KT 5SM -SN BR FEW006 SCT015 BKN032 M02/M04 A2949 RMK AO2 PK WND 32031/0838 SNB06 400001050 FZRANO PNO $
PAPO 190845Z AUTO 32018G31KT 2SM -SN BR FEW006 SCT015 BKN022 M02/M04 A2950 RMK AO2 PK WND 32031/0838 VIS 3/4V5 SNB06 FZRANO PNO $
PAPO 190828Z AUTO 33024KT 9SM FEW016 BKN021 OVC033 M01/M04 A2950 RMK AO2 PK WND 33029/0807 SNB06E25 FZRANO PNO $
PAPO 190756Z AUTO 34012KT 10SM FEW010 M02/M04 A2951 RMK AO2 PK WND 33029/0729 SNE08B28E50 SLP994 T10171044 FZRANO PNO $
PAPO 190656Z AUTO 32018KT 9SM -SN FEW035 BKN050 M01/M06 A2953 RMK AO2 PK WND 32026/0648 SNB0558E20B55 SLP000 T10111056 FZRANO PNO $
PAPO 190605Z AUTO 34022G25KT 7SM -SN FEW006 SCT018 BKN034 M02/M05 A2955 RMK AO2 SNB0558 FZRANO PNO $
PAPO 190556Z AUTO 34019KT 10SM FEW006 BKN018 BKN034 M01/M04 A2955 RMK AO2 SNB0458E38 SLP006 6//// T10111044 11011 21022 58014 FZRANO PNO $
PAPO 190540Z AUTO 33018KT 9SM FEW008 SCT015 BKN020 M02/M05 A2956 RMK AO2 SNB0458E38 FZRANO PNO $
PAPO 190456Z AUTO 34017KT 10SM CLR M01/M05 A2957 RMK AO2 SNE27 SLP013 T10111050 FZRANO PNO $
PAPO 190356Z AUTO 33017G23KT 10SM -SN BKN030 BKN044 M01/M06 A2958 RMK AO2 SNB31 SLP018 T10111056 FZRANO PNO $
PAPO 190256Z AUTO 01013KT 10SM CLR M02/M05 A2959 RMK AO2 SNB31E45 SLP019 6//// T10221050 55002 FZRANO PNO $
PAPO 190156Z AUTO 35020KT 10SM BKN033 BKN039 M01/M06 A2958 RMK AO2 PK WND 36026/0112 UPB11E16SNE11B16E45 SLP016 T10111056 FZRANO PNO $
PAPO 190144Z AUTO 35018KT 9SM -SN FEW020 BKN030 M01/M05 A2958 RMK AO2 PK WND 36026/0112 UPB11E16SNE11B16 FZRANO PNO $
PAPO 190126Z AUTO 01017KT 9SM -SN SCT009 BKN018 OVC032 M01/M04 A2959 RMK AO2 PK WND 36026/0112 UPB11E16SNE11B16 FZRANO PNO $
PAPO 190113Z AUTO 35021G26KT 7SM UP BKN009 BKN016 OVC028 M02/M04 A2959 RMK AO2 PK WND 36026/0112 UPB11SNE11 CIG 008V013 FZRANO PNO $
PAPO 190056Z AUTO 01020KT 8SM -SN FEW015 SCT021 BKN028 M02/M04 A2959 RMK AO2 UPB2357E00SNE2357B24 SLP019 T10171039 FZRANO PNO $
PAPO 190052Z AUTO 01020KT 3SM -SN BR FEW013 SCT021 SCT026 M02/M03 A2959 RMK AO2 UPB2357E00SNE2357B24 FZRANO PNO $
PAPO 190042Z AUTO 01020KT 1 3/4SM -SN FEW021 SCT070 M01/M04 A2959 RMK AO2 UPB2357E00SNE2357B24 FZRANO PNO $
PAPO 190031Z AUTO 36017KT 6SM -SN FEW006 SCT070 SCT090 M01/M04 A2960 RMK AO2 UPB2357E00SNE2357B24 FZRANO PNO $
PAPO 190011Z AUTO 01021KT 9SM SCT006 SCT010 OVC016 M02/M03 A2960 RMK AO2 UPB2357E00SNE2357 FZRANO PNO $
PAPO 182356Z AUTO 36023KT 8SM -SN BKN016 BKN020 M01/M03 A2960 RMK AO2 PK WND 36026/2356 UPB16E22SNE16B22 SLP022 6//// T10111028 11011 21033 58009 FZRANO PNO $
PAPO 182350Z AUTO 36022KT 5SM -SN BR BKN016 BKN022 M02/M03 A2960 RMK AO2 PK WND 01026/2346 UPB16E22SNE16B22 FZRANO PNO $
PAPO 182344Z AUTO 36021KT 2SM -SN BR BKN014 BKN020 M02/M03 A2960 RMK AO2 VIS 3/4V5 UPB16E22SNE16B22 FZRANO PNO $
PAPO 182336Z AUTO 01019G25KT 1SM -SN BR BKN014 M02/M03 A2961 RMK AO2 UPB16E22SNE16B22 FZRANO PNO $
PAPO 182333Z AUTO 36022G25KT 1 1/2SM -SN BR SCT014 M01/M03 A2960 RMK AO2 VIS 1/2V5 UPB16E22SNE16B22 FZRANO PNO $
PAPO 182314Z AUTO 01018G22KT 6SM -SN BR FEW009 SCT043 M02/M03 A2961 RMK AO2 FZRANO PNO $
PAPO 182256Z AUTO 01018KT 4SM -SN BR FEW042 M02/M03 A2961 RMK AO2 PK WND 35027/2238 SLP028 T10171033 FZRANO PNO $
PAPO 182254Z AUTO 01018KT 3SM -SN BR FEW042 M02/M03 A2961 RMK AO2 PK WND 35027/2238 FZRANO PNO $
PAPO 182251Z AUTO 36018KT 1 1/4SM -SN BR FEW042 M02/M03 A2961 RMK AO2 PK WND 35027/2238 VIS 1/2V5 FZRANO PNO $
PAPO 182248Z AUTO 36018KT 1SM -SN BR VV010 M02/M03 A2961 RMK AO2 PK WND 35027/2238 FZRANO PNO $
PAPO 182242Z AUTO 36022KT 3/4SM -SN BR FEW010 SCT029 M02/M03 A2961 RMK AO2 PK WND 35027/2238 FZRANO PNO $
PAPO 182235Z AUTO 35023G27KT 1 3/4SM -SN BR FEW010 M01/M03 A2960 RMK AO2 PK WND 35027/2234 VIS 1V5 FZRANO PNO $
PAPO 182201Z AUTO 01016KT 6SM -SN BR SCT006 BKN010 BKN043 M02/M03 A2962 RMK AO2 CIG 008V011 FZRANO PNO $
PAPO 182158Z AUTO 01014KT 2 1/2SM -SN BR BKN006 BKN010 M02/M03 A2962 RMK AO2 VIS 3/4V5 CIG 004V008 FZRANO PNO $
PAPO 182156Z AUTO 02012KT 1SM -SN BR SCT006 BKN010 BKN013 M02/M03 A2962 RMK AO2 WSHFT 2116 VIS 1/4V5 UPE01SNB01 CIG 008V011 SLP031 T10171033 FZRANO PNO $
PAPO 182153Z AUTO 02013KT 1SM -SN BR SCT006 BKN010 M02/M03 A2962 RMK AO2 WSHFT 2116 VIS 1/4V5 UPE01SNB01 FZRANO PNO $
PAPO 182152Z AUTO 01013KT 3/4SM -SN BR SCT006 BKN010 BKN034 M02/M03 A2962 RMK AO2 WSHFT 2116 VIS 1/4V4 UPE01SNB01 FZRANO PNO $
PAPO 182140Z AUTO 35012KT 1 1/4SM -SN BR FEW013 M02/M03 A2963 RMK AO2 WSHFT 2116 VIS 1/2V5 UPE01SNB01 FZRANO PNO $
PAPO 182132Z AUTO 36015KT 2SM -SN BR FEW009 SCT014 SCT035 M02/M03 A2963 RMK AO2 WSHFT 2116 VIS 3/4V5 UPE01SNB01 FZRANO PNO $
PAPO 182121Z AUTO 34013G17KT 1SM -SN BR SCT009 SCT018 BKN035 M02/M04 A2963 RMK AO2 UPE01SNB01 FZRANO PNO $
PAPO 182117Z AUTO 33012G17KT 1 3/4SM -SN BR SCT007 BKN018 BKN035 M02/M03 A2964 RMK AO2 UPE01SNB01 FZRANO PNO $
PAPO 182056Z AUTO 00000KT 10SM UP BKN007 M02/M03 A2964 RMK AO2 UPB47SNE47 CIG 006V010 SLP036 6//// T10221033 50001 FZRANO PNO $
PAPO 182042Z AUTO 00000KT 2SM -SN BR BKN007 M02/M03 A2964 RMK AO2 VIS 1V4 FZRANO PNO $
PAPO 182038Z AUTO 00000KT 1 1/4SM -SN BR SCT007 M02/M03 A2964 RMK AO2 FZRANO PNO $
PAPO 182029Z AUTO 00000KT 1SM -SN BR CLR M02/M04 A2964 RMK AO2 FZRANO PNO $
PAPO 182024Z AUTO 00000KT 1/2SM SN FZFG CLR M02/M04 A2964 RMK AO2 FZRANO PNO $
PAPO 182018Z AUTO 00000KT 1/2SM -SN FZFG VV009 M02/M04 A2964 RMK AO2 VIS 1/4V2 1/2 FZRANO PNO $
PAPO 182014Z AUTO 00000KT 1SM -SN BR VV008 M03/M04 A2964 RMK AO2 VIS 1/4V2 1/2 FZRANO PNO $
PAPO 182007Z AUTO 25003KT 1 3/4SM -SN BR BKN008 M03/M04 A2964 RMK AO2 CIG 008V012 FZRANO PNO $
PAPO 181956Z AUTO 00000KT 9SM -SN OVC008 M03/M05 A2964 RMK AO2 UPB13E24B48E51SNE13B24E48B51 CIG 008V013 SLP036 T10281050 FZRANO PNO $
PAPO 181947Z AUTO 23003KT 4SM -SN BR OVC008 M03/M05 A2964 RMK AO2 UPB13E24SNE13B24 CIG 008V013 FZRANO PNO $
PAPO 181944Z AUTO 23003KT 2 1/2SM -SN BR BKN010 OVC014 M03/M05 A2964 RMK AO2 VIS 1V5 UPB13E24SNE13B24 CIG 008V013 FZRANO PNO $
PAPO 181932Z AUTO 00000KT 1SM -SN BR BKN010 BKN029 OVC033 M03/M06 A2964 RMK AO2 UPB13E24SNE13B24 FZRANO PNO $
PAPO 181920Z AUTO 00000KT 1 3/4SM UP BR FEW010 BKN029 BKN033 M03/M06 A2964 RMK AO2 VIS 1V5 UPB13SNE13 FZRANO PNO $
PAPO 181909Z AUTO 00000KT 3SM -SN BR FEW035 M03/M06 A2964 RMK AO2 FZRANO PNO $
PAPO 181904Z AUTO 00000KT 1 3/4SM -SN BR CLR M03/M06 A2964 RMK AO2 VIS 1V5 FZRANO PNO $
PAPO 181856Z AUTO 00000KT 2SM -SN BR CLR M03/M05 A2963 RMK AO2 VIS 1V4 SLP035 T10331050 FZRANO PNO $
PAPO 181734Z AUTO 09005KT 3SM -SN BR CLR M05/M07 A2963 RMK AO2 UPB1658E08SNE1658B08 FZRANO PNO $
PAPO 181727Z AUTO 09006KT 1 3/4SM -SN BR CLR M05/M07 A2963 RMK AO2 UPB1658E08SNE1658B08 FZRANO PNO $
PAPO 181656Z AUTO 08007KT 5SM -SN BR CLR M04/M07 A2963 RMK AO2 SNE10B29 SLP032 T10441067 FZRANO PNO $
PAPO 181622Z AUTO 08008KT 5SM BR SCT005 BKN014 OVC030 M03/M06 A2963 RMK AO2 SNE10 FZRANO PNO $
PAPO 181603Z AUTO 09009KT 5SM -SN BR BKN005 OVC017 M02/M04 A2962 RMK AO2 CIG 003V007 FZRANO PNO $
PAPO 181556Z AUTO 08013KT 2 1/2SM -SN BR BKN005 BKN017 OVC047 M02/M04 A2962 RMK AO2 WSHFT 1532 VIS 3/4V5 UPB1459E10SNE1459B33 CIG 003V007 SLP031 T10221044 FZRANO PNO $
PAPO 181550Z AUTO 09007KT 1SM -SN BR BKN005 BKN017 OVC047 M02/M04 A2962 RMK AO2 WSHFT 1532 UPB1459E10SNE1459B33 FZRANO PNO $
PAPO 181546Z AUTO 08010KT 3/4SM -SN BR SCT005 BKN015 OVC047 M02/M04 A2962 RMK AO2 WSHFT 1532 UPB1459E10SNE1459B33 FZRANO PNO $
PAPO 181540Z AUTO 03015KT 1 3/4SM -SN SCT015 BKN026 OVC045 M01/M04 A2961 RMK AO2 UPB1459E10SNE1459B33 FZRANO PNO $
PAPO 181510Z AUTO 36019KT 10SM SCT009 BKN016 BKN021 M01/M03 A2960 RMK AO2 UPB1459E10SNE1459 FZRANO PNO $
PAPO 181456Z AUTO 02013KT 4SM -SN BR SCT009 BKN014 BKN021 M01/M03 A2961 RMK AO2 PK WND 02026/1416 UPE1358SNB18 SLP027 6//// T10111033 53003 FZRANO PNO $
PAPO 181453Z AUTO 02013KT 4SM -SN BR BKN011 BKN014 BKN032 M01/M03 A2961 RMK AO2 PK WND 02026/1416 UPE1358SNB18 CIG 005V013 FZRANO PNO $
PAPO 181445Z AUTO 03017KT 6SM -SN FEW007 SCT011 BKN016 M01/M04 A2961 RMK AO2 PK WND 02026/1416 UPE1358SNB18 FZRANO PNO $
PAPO 181438Z AUTO 36019G25KT 2SM -SN BR FEW011 SCT033 BKN039 M01/M03 A2960 RMK AO2 PK WND 02026/1416 VIS 3/4V5 UPE1358SNB18 FZRANO PNO $
PAPO 181356Z AUTO 01021KT 10SM UP BKN043 OVC050 M01/M04 A2960 RMK AO2 UPB30SNE06 SLP023 T10061044 FZRANO PNO $
PAPO 181312Z AUTO 01021KT 10SM SCT025 BKN031 OVC050 00/M05 A2960 RMK AO2 SNE06 FZRANO PNO $
PAPO 181224Z AUTO 01012KT 8SM -SN FEW014 BKN019 OVC038 M01/M03 A2961 RMK AO2 PK WND 03026/1201 UPE17SNB20 FZRANO PNO $
PAPO 181214Z AUTO 03018KT 10SM UP BKN014 BKN019 BKN055 M01/M03 A2961 RMK AO2 PK WND 03026/1201 FZRANO PNO $
PAPO 181156Z AUTO 02023KT 10SM UP FEW036 00/M05 A2960 RMK AO2 PK WND 36027/1058 UPB56 SLP023 6//// 7//// T00001050 10011 21006 50002 FZRANO PNO $
PAPO 181056Z AUTO 01021KT 10SM FEW028 BKN034 OVC043 00/M05 A2960 RMK AO2 PK WND 36027/1048 UPB0957E38 SLP024 T00001050 FZRANO PNO $
PAPO 180956Z AUTO 04018KT 10SM FEW013 SCT030 BKN080 00/M03 A2960 RMK AO2 PK WND 02027/0926 UPB18E44SNE06 SLP023 T00001033 FZRANO PNO $
PAPO 180945Z AUTO 02021KT 10SM FEW007 SCT011 BKN040 00/M02 A2960 RMK AO2 PK WND 02027/0926 UPB18E44SNE06 FZRANO PNO $
PAPO 180917Z AUTO 01020KT 9SM SCT008 OVC014 00/M02 A2959 RMK AO2 SNE06 FZRANO PNO $
PAPO 180910Z AUTO 02020KT 9SM SCT006 OVC017 00/M02 A2959 RMK AO2 SNE06 CIG 009V020 FZRANO PNO $
PAPO 180856Z AUTO 02015KT 4SM -SN BR OVC006 M01/M02 A2959 RMK AO2 PK WND 36030/0818 UPB17E18RAB18E22SNB22 SLP021 6//// T10061017 400111011 53004 FZRANO PNO $
PAPO 180837Z AUTO 02015KT 1 1/4SM -SN BR BKN006 OVC019 M01/M02 A2959 RMK AO2 PK WND 36030/0818 UPB17E18RAB18E22SNB22 FZRANO PNO $
PAPO 180822Z AUTO 36021G30KT 1 3/4SM -SN BR BKN019 BKN025 00/M02 A2959 RMK AO2 PK WND 36030/0818 UPB17E18RAB18E22SNB22 FZRANO PNO $
PAPO 180756Z AUTO 36016KT 10SM BKN017 BKN029 00/M02 A2959 RMK AO2 PK WND 35026/0713 UPB13E54RAB33E36 SLP019 T00001022 FZRANO PNO $
PAPO 180656Z AUTO 35020KT 10SM BKN037 BKN045 01/M03 A2958 RMK AO2 RAE26UPB26E44 SLP016 T00111033 FZRANO PNO $
PAPO 180608Z AUTO 36020KT 10SM FEW016 SCT026 BKN034 01/M03 A2958 RMK AO2 RAE03 FZRANO PNO $
PAPO 180556Z AUTO 36022KT 6SM -RA BKN016 BKN024 01/M03 A2958 RMK AO2 PK WND 36027/0547 RAB46 SLP017 6//// T00061028 10011 21006 53003 FZRANO PNO $
PAPO 180456Z AUTO 36019KT 10SM SCT048 01/M02 A2958 RMK AO2 PK WND 36027/0413 RAE20UPB20E28 SLP016 T00061022 FZRANO PNO $
PAPO 180356Z AUTO 36023G27KT 9SM -RA FEW005 SCT042 BKN050 01/M02 A2956 RMK AO2 PK WND 01027/0356 UPB15E39RAB52SNB23E32 SLP011 T00111017 FZRANO PNO $
PAPO 180333Z AUTO 02017KT 8SM UP SCT005 BKN010 BKN042 00/M02 A2958 RMK AO2 UPB15SNB23E32 CIG 007V010 FZRANO PNO $
PAPO 180328Z AUTO 02015KT 2SM -SN BR BKN007 BKN010 00/M02 A2958 RMK AO2 UPB15E23SNB23 FZRANO PNO $
PAPO 180322Z AUTO 02018KT 1SM UP BR BKN007 BKN015 00/M02 A2958 RMK AO2 UPB15 CIG 004V010 FZRANO PNO $
PAPO 180318Z AUTO 01019KT 1 3/4SM UP BR SCT007 BKN010 BKN015 01/M02 A2958 RMK AO2 UPB15 FZRANO PNO $
PAPO 180308Z AUTO 36018KT 10SM SCT007 BKN010 OVC025 00/M02 A2957 RMK AO2 FZRANO PNO $
PAPO 180256Z AUTO 01018KT 10SM SCT007 BKN015 OVC043 00/M01 A2957 RMK AO2 UPE30SNB30E48 SLP013 6//// T00001011 56001 FZRANO PNO $
PAPO 180253Z AUTO 01019KT 9SM SCT007 BKN026 OVC045 00/M01 A2957 RMK AO2 UPE30SNB30E48 FZRANO PNO $
PAPO 180248Z AUTO 01019KT 9SM FEW013 BKN034 OVC050 00/M01 A2957 RMK AO2 UPE30SNB30E48 FZRANO PNO $
PAPO 180241Z AUTO 01017KT 2SM -SN BR FEW007 SCT027 BKN034 00/M01 A2957 RMK AO2 UPE30SNB30 FZRANO PNO $
PAPO 180238Z AUTO 01017KT 1SM -SN BR FEW009 SCT027 BKN043 00/M01 A2957 RMK AO2 UPE30SNB30 FZRANO PNO $
PAPO 180231Z AUTO 35019G24KT 1SM -SN BR SCT009 BKN029 OVC050 00/M01 A2957 RMK AO2 UPE30SNB30 FZRANO PNO $
PAPO 180214Z AUTO 01011KT 3SM UP BR OVC007 00/M02 A2958 RMK AO2 CIG 005V010 FZRANO PNO $
PAPO 180200Z AUTO 02021G26KT 1 3/4SM UP BR BKN007 OVC011 01/M02 A2957 RMK AO2 CIG 005V009 P0000 FZRANO
PAPO 180156Z AUTO 01016G26KT 4SM UP BR BKN007 OVC013 00/M02 A2958 RMK AO2 PK WND 02026/0156 RAB04E13UPB34E37B53SNB13E34 CIG 005V008 SLP015 P0000 T00001017 FZRANO
PAPO 180143Z AUTO 02014KT 10SM BKN007 OVC016 00/M02 A2957 RMK AO2 PK WND 02026/0106 RAB04E13UPB34E37SNB13E34 CIG 005V012 P0000 FZRANO
PAPO 180137Z AUTO 01012KT 9SM FEW005 SCT010 BKN016 00/M02 A2958 RMK AO2 PK WND 02026/0106 RAB04E13UPB34E37SNB13E34 P0000 FZRANO
PAPO 180130Z AUTO 01014KT 2 1/2SM -SN BR FEW009 BKN016 M01/M02 A2957 RMK AO2 PK WND 02026/0106 RAB04E13SNB13 P0000 FZRANO
PAPO 180127Z AUTO 36014KT 1SM -SN BR FEW009 BKN016 M01/M02 A2957 RMK AO2 PK WND 02026/0106 RAB04E13SNB13 P0000 FZRANO
PAPO 180124Z AUTO 36015KT 1/2SM -SN FG FEW009 BKN016 00/M02 A2958 RMK AO2 PK WND 02026/0106 RAB04E13SNB13 P0000 FZRANO
PAPO 180117Z AUTO 36018G25KT 3/4SM -SN BR SCT014 SCT070 00/M02 A2958 RMK AO2 PK WND 02026/0106 RAB04E13SNB13 P0000 FZRANO
PAPO 180114Z AUTO 01021KT 1 3/4SM -SN BR FEW014 SCT070 00/M02 A2957 RMK AO2 PK WND 02026/0106 VIS 3/4V5 RAB04E13SNB13 P0000 FZRANO
PAPO 180056Z AUTO 35020KT 10SM FEW031 SCT070 01/M02 A2957 RMK AO2 UPB10E20RAB20E28SNE10 SLP011 P0000 T00111017 FZRANO